Time;durP1;ratioP1;P1;durP2;ratioP2;P2;SDS_P1;SDS_P2;PMS_P1;PMS_P2;Temp;Humidity;BMP_temperature;BMP_pressure;BME280_temperature;BME280_humidity;BME280_pressure;Samples;Min_cycle;Max_cycle;Signal;HPM_P1;HPM_P2
2022/03/28 00:01:45;;;;;;;29.33;14.20;;;5.40;50.10;;;;;;5082082;28;20935;-58
2022/03/28 00:04:11;;;;;;;26.60;12.90;;;5.30;50.10;;;;;;5077739;28;20459;-58
2022/03/28 00:06:36;;;;;;;24.30;13.77;;;5.30;50.00;;;;;;5079518;28;20203;-57
2022/03/28 00:09:05;;;;;;;24.47;13.83;;;5.30;50.10;;;;;;5077340;28;20393;-58
2022/03/28 00:11:31;;;;;;;22.83;12.17;;;5.20;50.10;;;;;;5079470;28;20177;-57
2022/03/28 00:13:56;;;;;;;23.97;13.30;;;5.20;50.00;;;;;;5082209;28;20443;-58
2022/03/28 00:16:22;;;;;;;26.37;13.00;;;5.10;50.10;;;;;;5079229;28;20204;-58
2022/03/28 00:18:48;;;;;;;33.33;13.57;;;5.00;50.20;;;;;;5075323;28;20477;-57
2022/03/28 00:21:13;;;;;;;22.97;12.20;;;5.00;50.40;;;;;;5075315;28;20185;-57
2022/03/28 00:23:39;;;;;;;25.10;12.37;;;5.00;50.60;;;;;;5080140;28;20683;-58
2022/03/28 00:26:05;;;;;;;29.20;13.47;;;4.90;50.60;;;;;;5079350;28;20225;-57
2022/03/28 00:28:30;;;;;;;22.17;11.73;;;4.90;50.70;;;;;;5083109;28;20200;-57
2022/03/28 00:30:56;;;;;;;28.17;12.63;;;4.80;50.80;;;;;;5080514;28;20257;-57
2022/03/28 00:33:22;;;;;;;25.50;13.70;;;4.80;51.00;;;;;;5082826;28;20276;-58
2022/03/28 00:35:50;;;;;;;28.33;14.33;;;4.80;51.10;;;;;;5082309;28;20316;-57
2022/03/28 00:38:16;;;;;;;27.20;13.90;;;4.70;51.10;;;;;;5094333;28;20213;-57
2022/03/28 00:40:42;;;;;;;24.20;12.80;;;4.70;51.30;;;;;;5085258;28;20453;-57
2022/03/28 00:43:09;;;;;;;23.50;13.17;;;4.70;51.20;;;;;;5084200;28;20444;-57
2022/03/28 00:45:38;;;;;;;26.50;13.80;;;4.60;51.30;;;;;;5079882;28;20443;-57
2022/03/28 00:48:05;;;;;;;26.40;13.30;;;4.60;51.50;;;;;;5077393;28;20959;-57
2022/03/28 00:50:32;;;;;;;24.17;12.80;;;4.50;51.50;;;;;;5078648;28;20447;-57
2022/03/28 00:52:59;;;;;;;24.10;12.87;;;4.50;51.60;;;;;;5078341;28;20476;-58
2022/03/28 00:55:25;;;;;;;24.93;13.17;;;4.50;51.60;;;;;;5081041;28;20869;-58
2022/03/28 00:57:51;;;;;;;25.57;12.93;;;4.50;51.60;;;;;;5079080;28;20462;-58
2022/03/28 01:00:16;;;;;;;26.57;14.30;;;4.50;51.60;;;;;;5077238;28;20424;-57
2022/03/28 01:02:43;;;;;;;31.30;13.40;;;4.50;51.70;;;;;;5075392;28;20213;-57
2022/03/28 01:05:10;;;;;;;25.10;13.23;;;4.40;51.60;;;;;;5077130;28;20429;-56
2022/03/28 01:07:38;;;;;;;27.63;12.73;;;4.40;51.90;;;;;;5077530;28;20520;-56
2022/03/28 01:10:04;;;;;;;28.90;13.50;;;4.30;51.90;;;;;;5077062;28;20432;-56
2022/03/28 01:12:31;;;;;;;23.80;12.50;;;4.30;52.00;;;;;;5078490;28;20815;-56
2022/03/28 01:14:58;;;;;;;21.80;12.53;;;4.30;52.20;;;;;;5079790;28;20956;-56
2022/03/28 01:20:09;;;;;;;23.63;13.33;;;4.30;52.20;;;;;;5103047;28;20507;-60
2022/03/28 01:22:35;;;;;;;25.10;13.83;;;4.20;52.10;;;;;;5101896;27;20450;-60
2022/03/28 01:25:04;;;;;;;33.63;14.20;;;4.20;52.20;;;;;;5101030;27;20426;-59
2022/03/28 01:27:31;;;;;;;24.93;12.83;;;4.20;52.80;;;;;;5098824;28;20470;-60
2022/03/28 01:29:56;;;;;;;25.87;12.97;;;4.10;52.30;;;;;;5088398;28;20408;-60
2022/03/28 01:32:22;;;;;;;25.30;12.90;;;4.10;52.40;;;;;;5088512;28;20822;-60
2022/03/28 01:34:48;;;;;;;25.90;12.97;;;4.00;52.30;;;;;;5086392;28;20185;-60
2022/03/28 01:37:16;;;;;;;22.63;13.47;;;4.00;52.40;;;;;;5088378;28;20200;-60
2022/03/28 01:39:41;;;;;;;28.30;13.47;;;4.00;52.50;;;;;;5089393;28;20170;-60
2022/03/28 01:42:07;;;;;;;27.83;13.20;;;3.90;52.50;;;;;;5084920;28;20477;-59
2022/03/28 01:44:33;;;;;;;27.43;13.30;;;3.80;52.60;;;;;;5088274;28;20185;-60
2022/03/28 01:46:58;;;;;;;21.97;12.90;;;3.80;52.80;;;;;;5086823;28;20463;-60
2022/03/28 01:49:24;;;;;;;26.17;13.17;;;3.70;52.90;;;;;;5088727;28;20232;-60
2022/03/28 01:51:50;;;;;;;25.40;14.80;;;3.70;53.00;;;;;;5084236;28;20199;-60
2022/03/28 01:54:17;;;;;;;23.40;13.43;;;3.60;53.00;;;;;;5087330;28;20174;-60
2022/03/28 01:56:43;;;;;;;29.07;13.50;;;3.60;53.00;;;;;;5084463;28;20173;-60
2022/03/28 01:59:10;;;;;;;32.03;14.67;;;3.60;53.30;;;;;;5086864;28;20459;-59
2022/03/28 02:01:36;;;;;;;29.00;14.60;;;3.50;53.30;;;;;;5086903;28;20799;-60
2022/03/28 02:04:03;;;;;;;26.63;14.50;;;3.50;53.60;;;;;;5086013;28;20442;-59
2022/03/28 02:06:29;;;;;;;25.00;13.77;;;3.50;53.80;;;;;;5082342;28;20459;-59
2022/03/28 02:08:54;;;;;;;21.17;12.47;;;3.40;53.80;;;;;;5086417;28;20804;-60
2022/03/28 02:11:20;;;;;;;27.77;14.07;;;3.40;54.00;;;;;;5086163;28;20977;-61
2022/03/28 02:13:46;;;;;;;28.03;13.37;;;3.40;54.00;;;;;;5087253;28;20204;-61
2022/03/28 02:16:12;;;;;;;25.03;12.30;;;3.40;54.10;;;;;;5084048;28;20535;-60
2022/03/28 02:18:38;;;;;;;22.93;12.77;;;3.40;54.10;;;;;;5085224;28;20209;-60
2022/03/28 02:21:05;;;;;;;28.70;12.67;;;3.30;54.00;;;;;;5082209;28;21284;-60
2022/03/28 02:23:31;;;;;;;28.70;13.47;;;3.30;54.10;;;;;;5084736;28;20427;-61
2022/03/28 02:25:57;;;;;;;27.60;13.67;;;3.20;54.10;;;;;;5084284;28;20400;-60
2022/03/28 02:28:23;;;;;;;29.13;13.47;;;3.20;54.30;;;;;;5083345;28;20219;-60
2022/03/28 02:30:48;;;;;;;23.07;12.87;;;3.20;54.50;;;;;;5085549;28;20417;-60
2022/03/28 02:33:14;;;;;;;26.87;13.53;;;3.20;54.70;;;;;;5084026;28;20439;-60
2022/03/28 02:35:40;;;;;;;22.30;12.50;;;3.20;54.70;;;;;;5080116;28;20178;-59
2022/03/28 02:38:07;;;;;;;25.90;12.40;;;3.20;54.70;;;;;;5083808;28;20335;-59
2022/03/28 02:40:33;;;;;;;25.20;13.03;;;3.10;54.70;;;;;;5084030;28;21227;-59
2022/03/28 02:42:59;;;;;;;28.33;14.30;;;3.10;54.80;;;;;;5085291;28;20487;-60
2022/03/28 02:45:31;;;;;;;23.27;13.53;;;3.10;54.90;;;;;;5086054;28;20411;-60
2022/03/28 02:47:59;;;;;;;24.60;13.00;;;3.10;55.00;;;;;;5084984;28;20467;-60
2022/03/28 02:50:28;;;;;;;26.33;12.90;;;3.10;55.10;;;;;;5084546;28;20430;-60
2022/03/28 02:52:54;;;;;;;33.30;12.50;;;3.10;55.20;;;;;;5085222;28;20427;-60
2022/03/28 02:55:20;;;;;;;24.97;12.97;;;3.10;55.20;;;;;;5083734;28;20423;-60
2022/03/28 02:57:48;;;;;;;27.57;13.47;;;3.00;55.20;;;;;;5083752;28;20295;-60
2022/03/28 03:00:14;;;;;;;23.47;13.23;;;3.00;55.20;;;;;;5083534;28;20257;-60
2022/03/28 03:02:42;;;;;;;26.93;13.43;;;3.00;55.20;;;;;;5085926;28;20428;-60
2022/03/28 03:05:09;;;;;;;24.60;12.03;;;3.00;55.40;;;;;;5082730;28;20562;-60
2022/03/28 03:07:35;;;;;;;25.43;14.63;;;2.90;55.20;;;;;;5095634;28;20941;-60
2022/03/28 03:10:00;;;;;;;27.30;13.30;;;2.90;55.30;;;;;;5082422;28;20522;-60
2022/03/28 03:12:26;;;;;;;28.47;14.60;;;2.90;55.30;;;;;;5084636;28;20216;-59
2022/03/28 03:14:52;;;;;;;25.37;13.83;;;2.80;55.40;;;;;;5084685;28;20254;-60
2022/03/28 03:17:19;;;;;;;25.03;13.60;;;2.80;55.40;;;;;;5082220;28;20774;-60
2022/03/28 03:19:44;;;;;;;28.10;14.03;;;2.70;55.60;;;;;;5085219;28;20737;-59
2022/03/28 03:22:12;;;;;;;28.70;13.40;;;2.70;55.80;;;;;;5082453;28;20532;-59
2022/03/28 03:24:37;;;;;;;24.80;14.07;;;2.70;56.00;;;;;;5084972;28;20758;-60
2022/03/28 03:27:03;;;;;;;24.83;13.00;;;2.60;56.20;;;;;;5084109;28;20458;-59
2022/03/28 03:29:29;;;;;;;25.77;13.67;;;2.60;56.40;;;;;;5079267;28;20181;-60
2022/03/28 03:31:55;;;;;;;29.73;14.13;;;2.60;56.70;;;;;;5089196;28;20510;-59
2022/03/28 03:34:20;;;;;;;24.53;12.70;;;2.60;56.80;;;;;;5090716;28;20552;-60
2022/03/28 03:36:46;;;;;;;25.20;14.07;;;2.60;57.00;;;;;;5091449;28;20207;-59
2022/03/28 03:39:12;;;;;;;27.03;14.33;;;2.50;57.20;;;;;;5092258;28;20712;-61
2022/03/28 03:41:38;;;;;;;28.67;14.10;;;2.50;57.60;;;;;;5090344;28;20180;-61
2022/03/28 03:44:05;;;;;;;27.47;12.60;;;2.50;57.60;;;;;;5095246;28;20419;-60
2022/03/28 03:46:32;;;;;;;28.53;14.10;;;2.50;57.60;;;;;;5088120;28;20454;-59
2022/03/28 03:48:57;;;;;;;25.57;13.13;;;2.40;57.80;;;;;;5089407;28;20537;-61
2022/03/28 03:51:23;;;;;;;23.63;12.50;;;2.40;58.00;;;;;;5092019;28;20923;-60
2022/03/28 03:53:48;;;;;;;30.50;14.00;;;2.30;57.90;;;;;;5085297;28;20166;-60
2022/03/28 03:56:14;;;;;;;26.50;12.37;;;2.30;58.50;;;;;;5083177;28;20984;-60
2022/03/28 03:58:40;;;;;;;26.23;13.93;;;2.30;57.90;;;;;;5096593;28;20185;-60
2022/03/28 04:01:07;;;;;;;27.83;13.70;;;2.30;58.30;;;;;;5089635;28;20177;-61
2022/03/28 04:03:33;;;;;;;26.73;13.17;;;2.30;58.50;;;;;;5087725;28;20185;-62
2022/03/28 04:05:59;;;;;;;26.07;13.40;;;2.30;59.20;;;;;;5084886;28;20427;-62
2022/03/28 04:08:26;;;;;;;26.77;12.70;;;2.20;59.00;;;;;;5087055;28;20498;-61
2022/03/28 04:10:51;;;;;;;31.83;14.17;;;2.20;59.00;;;;;;5084949;28;20571;-62
2022/03/28 04:13:18;;;;;;;25.60;13.80;;;2.20;58.80;;;;;;5081371;28;20427;-63
2022/03/28 04:15:44;;;;;;;30.43;14.40;;;2.20;58.80;;;;;;5086002;28;20773;-64
2022/03/28 04:18:09;;;;;;;27.43;14.00;;;2.20;59.30;;;;;;5078293;28;20569;-64
2022/03/28 04:20:35;;;;;;;29.30;14.47;;;2.20;59.40;;;;;;5089545;28;20182;-64
2022/03/28 04:23:01;;;;;;;26.57;14.33;;;2.20;59.30;;;;;;5079631;28;20196;-65
2022/03/28 04:25:27;;;;;;;32.80;14.23;;;2.10;59.50;;;;;;5076627;28;20183;-64
2022/03/28 04:27:53;;;;;;;25.93;13.53;;;2.10;59.80;;;;;;5079779;28;20485;-65
2022/03/28 04:30:19;;;;;;;32.97;13.27;;;2.10;60.10;;;;;;5079783;28;20449;-65
2022/03/28 04:32:44;;;;;;;29.17;14.80;;;2.10;60.60;;;;;;5075684;28;20232;-65
2022/03/28 04:35:12;;;;;;;28.83;12.93;;;2.00;60.60;;;;;;5082596;28;20173;-65
2022/03/28 04:37:40;;;;;;;34.37;13.50;;;2.00;61.00;;;;;;5083239;28;20257;-64
2022/03/28 04:40:08;;;;;;;26.70;13.90;;;2.00;61.00;;;;;;5077855;28;20430;-62
2022/03/28 04:42:35;;;;;;;27.03;14.40;;;2.00;60.90;;;;;;5085015;28;20468;-64
2022/03/28 04:45:00;;;;;;;31.17;13.67;;;2.00;60.70;;;;;;5085673;28;20972;-63
2022/03/28 04:47:26;;;;;;;25.53;14.03;;;2.00;60.90;;;;;;5084613;28;20460;-64
2022/03/28 04:49:52;;;;;;;25.47;14.00;;;2.00;61.10;;;;;;5085378;28;20846;-64
2022/03/28 04:52:18;;;;;;;25.20;12.90;;;2.00;61.30;;;;;;5084583;28;20174;-64
2022/03/28 04:54:44;;;;;;;31.13;15.07;;;1.90;61.80;;;;;;5078414;28;20188;-64
2022/03/28 04:57:09;;;;;;;26.83;12.90;;;1.90;62.40;;;;;;5087530;28;20428;-65
2022/03/28 04:59:35;;;;;;;36.23;14.33;;;1.90;63.20;;;;;;5092706;28;20176;-65
2022/03/28 05:02:00;;;;;;;22.63;13.53;;;1.90;62.70;;;;;;5087652;28;20184;-64
2022/03/28 05:04:26;;;;;;;44.20;14.57;;;1.80;62.90;;;;;;5083500;28;20185;-64
2022/03/28 05:06:52;;;;;;;32.93;12.63;;;1.80;63.00;;;;;;5077543;28;20192;-59
2022/03/28 05:09:18;;;;;;;28.07;13.57;;;1.80;63.40;;;;;;5086219;28;20185;-60
2022/03/28 05:11:44;;;;;;;29.37;14.70;;;1.70;64.00;;;;;;5088581;28;20428;-59
2022/03/28 05:14:11;;;;;;;28.73;15.07;;;1.70;64.50;;;;;;5088803;28;20192;-60
2022/03/28 05:16:36;;;;;;;27.27;15.03;;;1.60;64.90;;;;;;5088293;28;20434;-59
2022/03/28 05:19:03;;;;;;;27.33;13.77;;;1.60;65.50;;;;;;5081194;28;20473;-60
2022/03/28 05:21:30;;;;;;;33.83;15.40;;;1.60;65.40;;;;;;5086882;28;20237;-59
2022/03/28 05:23:56;;;;;;;30.13;14.70;;;1.60;65.50;;;;;;5089012;28;20427;-59
2022/03/28 05:26:21;;;;;;;32.87;14.67;;;1.60;65.30;;;;;;5089882;28;20418;-59
2022/03/28 05:28:47;;;;;;;37.20;16.40;;;1.60;65.70;;;;;;5086802;28;20192;-59
2022/03/28 05:31:12;;;;;;;29.07;13.77;;;1.60;65.60;;;;;;5088818;28;20558;-61
2022/03/28 05:33:38;;;;;;;43.60;16.50;;;1.60;65.80;;;;;;5088756;28;20251;-60
2022/03/28 05:36:04;;;;;;;28.90;14.37;;;1.60;66.40;;;;;;5085504;28;20193;-60
2022/03/28 05:38:30;;;;;;;34.30;15.23;;;1.60;66.20;;;;;;5088354;28;20312;-60
2022/03/28 05:40:57;;;;;;;34.73;14.20;;;1.60;66.10;;;;;;5090010;28;21162;-61
2022/03/28 05:43:23;;;;;;;33.67;15.83;;;1.70;66.30;;;;;;5088685;28;20437;-60
2022/03/28 05:45:50;;;;;;;27.40;14.23;;;1.70;66.40;;;;;;5085292;28;20499;-60
2022/03/28 05:48:16;;;;;;;34.10;15.30;;;1.70;66.20;;;;;;5087906;28;20520;-59
2022/03/28 05:50:42;;;;;;;33.53;15.20;;;1.70;66.50;;;;;;5087340;28;20426;-60
2022/03/28 05:53:09;;;;;;;32.77;14.90;;;1.70;66.50;;;;;;5083485;28;20428;-60
2022/03/28 05:55:35;;;;;;;26.10;14.10;;;1.70;66.30;;;;;;5088049;28;20213;-59
2022/03/28 05:58:00;;;;;;;34.67;15.30;;;1.80;66.60;;;;;;5087148;28;20466;-59
2022/03/28 06:00:26;;;;;;;31.50;16.30;;;1.80;67.10;;;;;;5086941;28;20205;-61
2022/03/28 06:02:52;;;;;;;30.63;14.97;;;1.90;66.80;;;;;;5083939;28;20181;-60
2022/03/28 06:05:17;;;;;;;29.27;14.83;;;2.00;67.00;;;;;;5088968;28;20229;-60
2022/03/28 06:07:43;;;;;;;34.70;17.03;;;2.00;66.60;;;;;;5082535;28;20258;-60
2022/03/28 06:10:09;;;;;;;28.13;14.47;;;2.10;66.00;;;;;;5086968;28;20180;-59
2022/03/28 06:12:35;;;;;;;31.60;14.30;;;2.20;66.10;;;;;;5081979;28;20175;-60
2022/03/28 06:15:01;;;;;;;28.80;14.63;;;2.30;65.30;;;;;;5086361;28;20458;-60
2022/03/28 06:17:27;;;;;;;30.73;16.43;;;2.40;64.20;;;;;;5085684;28;20576;-59
2022/03/28 06:19:53;;;;;;;33.53;14.73;;;2.40;65.20;;;;;;5084986;28;20430;-61
2022/03/28 06:22:19;;;;;;;32.90;14.77;;;2.50;65.50;;;;;;5086066;28;20603;-59
2022/03/28 06:24:45;;;;;;;32.67;15.40;;;2.60;64.70;;;;;;5082995;28;20432;-60
2022/03/28 06:27:11;;;;;;;33.63;14.53;;;2.70;64.30;;;;;;5085607;28;20495;-62
2022/03/28 06:29:37;;;;;;;29.20;14.70;;;2.80;63.00;;;;;;5088707;28;20418;-60
2022/03/28 06:32:03;;;;;;;27.00;15.23;;;2.90;62.70;;;;;;5080306;28;20493;-60
2022/03/28 06:34:30;;;;;;;26.53;14.03;;;3.00;62.70;;;;;;5086728;28;20193;-60
2022/03/28 06:36:57;;;;;;;31.50;13.93;;;3.10;62.50;;;;;;5087260;28;20534;-62
2022/03/28 06:39:22;;;;;;;36.83;15.20;;;3.10;62.50;;;;;;5088785;28;20420;-60
2022/03/28 06:41:48;;;;;;;46.00;15.60;;;3.20;62.00;;;;;;5083110;28;20437;-61
2022/03/28 06:44:14;;;;;;;50.40;17.10;;;3.30;61.50;;;;;;5082347;28;20184;-61
2022/03/28 06:46:40;;;;;;;40.57;17.57;;;3.40;61.50;;;;;;5086715;28;20225;-61
2022/03/28 06:49:06;;;;;;;40.20;17.70;;;3.50;61.60;;;;;;5084773;28;20780;-61
2022/03/28 06:51:33;;;;;;;42.70;17.60;;;3.60;61.00;;;;;;5086674;28;20428;-60
2022/03/28 06:53:58;;;;;;;27.20;15.13;;;3.70;60.30;;;;;;5083526;28;20511;-60
2022/03/28 06:56:24;;;;;;;32.57;14.80;;;3.70;60.10;;;;;;5087314;28;20502;-60
2022/03/28 06:58:50;;;;;;;48.50;17.00;;;3.80;60.20;;;;;;5086853;28;20443;-60
2022/03/28 07:01:16;;;;;;;40.00;14.70;;;3.80;60.60;;;;;;5080274;28;20872;-61
2022/03/28 07:03:42;;;;;;;40.73;15.57;;;3.90;60.30;;;;;;5081199;28;20214;-60
2022/03/28 07:06:07;;;;;;;27.17;14.60;;;3.90;60.40;;;;;;5086082;28;21177;-60
2022/03/28 07:08:34;;;;;;;29.67;14.80;;;4.00;61.10;;;;;;5086596;28;20236;-61
2022/03/28 07:10:59;;;;;;;25.97;14.07;;;4.10;60.80;;;;;;5079984;28;20177;-61
2022/03/28 07:13:26;;;;;;;24.03;12.90;;;4.20;60.40;;;;;;5082836;28;20415;-60
2022/03/28 07:15:52;;;;;;;28.57;13.43;;;4.20;60.50;;;;;;5084036;28;20170;-60
2022/03/28 07:18:17;;;;;;;29.73;13.10;;;4.20;60.40;;;;;;5082018;28;20555;-61
2022/03/28 07:20:43;;;;;;;27.57;13.83;;;4.30;60.70;;;;;;5080885;28;20185;-60
2022/03/28 07:23:10;;;;;;;28.27;13.30;;;4.40;60.80;;;;;;5083836;28;20181;-61
2022/03/28 07:25:36;;;;;;;28.20;14.37;;;4.50;60.60;;;;;;5086032;28;20423;-59
2022/03/28 07:28:10;;;;;;;29.97;13.73;;;4.60;60.60;;;;;;5083209;28;20528;-60
2022/03/28 07:30:37;;;;;;;28.50;13.10;;;4.70;60.30;;;;;;5086604;28;20420;-61
2022/03/28 07:33:06;;;;;;;30.83;13.40;;;4.90;60.90;;;;;;5080516;28;20523;-60
2022/03/28 07:35:35;;;;;;;32.50;13.90;;;5.00;60.10;;;;;;5087665;28;20412;-60
2022/03/28 07:38:01;;;;;;;25.63;12.93;;;5.10;60.00;;;;;;5083384;28;20455;-59
2022/03/28 07:40:27;;;;;;;24.03;12.97;;;5.20;59.40;;;;;;5077940;28;20439;-60
2022/03/28 07:42:53;;;;;;;21.23;12.90;;;5.40;58.50;;;;;;5070108;28;20436;-60
2022/03/28 07:45:23;;;;;;;28.10;13.00;;;5.50;57.90;;;;;;5084095;28;20189;-59
2022/03/28 07:47:49;;;;;;;24.93;14.10;;;5.60;57.70;;;;;;5078379;28;20205;-60
2022/03/28 07:50:15;;;;;;;25.00;12.63;;;5.80;57.50;;;;;;5085516;28;21130;-60
2022/03/28 07:52:41;;;;;;;29.60;12.37;;;5.90;57.00;;;;;;5086543;28;20428;-59
2022/03/28 07:55:08;;;;;;;27.17;13.20;;;6.00;56.60;;;;;;5084041;28;20170;-59
2022/03/28 07:57:35;;;;;;;27.90;13.30;;;6.10;56.40;;;;;;5077941;28;20485;-59
2022/03/28 08:00:04;;;;;;;27.97;14.00;;;6.30;56.50;;;;;;5082644;28;20431;-59
2022/03/28 08:02:29;;;;;;;36.20;15.80;;;6.50;56.30;;;;;;5081881;28;20863;-63
2022/03/28 08:04:55;;;;;;;42.20;16.33;;;6.60;56.00;;;;;;5082851;28;20542;-60
2022/03/28 08:07:21;;;;;;;32.53;15.93;;;6.70;55.30;;;;;;5082777;28;20795;-62
2022/03/28 08:09:47;;;;;;;48.00;15.63;;;6.90;54.80;;;;;;5080930;28;20245;-60
2022/03/28 08:12:13;;;;;;;46.07;17.60;;;7.00;54.50;;;;;;5080299;28;20423;-60
2022/03/28 08:14:39;;;;;;;39.97;16.70;;;7.20;54.50;;;;;;5086461;28;20178;-58
2022/03/28 08:17:06;;;;;;;45.07;17.50;;;7.40;54.50;;;;;;5090103;28;20271;-60
2022/03/28 08:19:32;;;;;;;45.30;17.30;;;7.50;55.00;;;;;;5092108;28;20911;-60
2022/03/28 08:21:57;;;;;;;45.00;17.70;;;7.70;53.60;;;;;;5083863;28;20431;-60
2022/03/28 08:24:23;;;;;;;38.47;17.57;;;7.80;53.60;;;;;;5086708;28;20439;-60
2022/03/28 08:26:49;;;;;;;40.70;18.53;;;8.00;54.00;;;;;;5085164;28;20205;-60
2022/03/28 08:29:15;;;;;;;39.73;19.37;;;8.20;53.80;;;;;;5091551;28;20200;-60
2022/03/28 08:31:41;;;;;;;51.73;19.50;;;8.40;53.60;;;;;;5092144;28;20170;-60
2022/03/28 08:34:07;;;;;;;81.17;19.50;;;8.60;53.30;;;;;;5089932;28;20426;-59
2022/03/28 08:36:34;;;;;;;38.03;20.00;;;8.70;53.10;;;;;;5088794;28;20432;-59
2022/03/28 08:39:00;;;;;;;49.87;18.67;;;8.90;52.80;;;;;;5083727;28;20455;-59
2022/03/28 08:41:27;;;;;;;42.90;20.33;;;9.00;52.20;;;;;;5091511;28;20415;-61
2022/03/28 08:43:53;;;;;;;43.73;20.23;;;9.20;51.80;;;;;;5091732;28;20808;-61
2022/03/28 08:46:19;;;;;;;51.70;19.57;;;9.40;51.70;;;;;;5083327;28;20427;-59
2022/03/28 08:48:47;;;;;;;54.27;19.83;;;9.60;52.10;;;;;;5081827;28;20198;-60
2022/03/28 08:51:16;;;;;;;41.00;18.53;;;9.80;51.30;;;;;;5089277;28;21166;-59
2022/03/28 08:53:44;;;;;;;40.70;18.20;;;9.90;50.80;;;;;;5090071;28;20842;-61
2022/03/28 08:56:10;;;;;;;37.87;19.07;;;10.20;49.40;;;;;;5084395;28;20420;-64
2022/03/28 08:58:36;;;;;;;38.40;17.50;;;10.30;48.80;;;;;;5087063;28;20508;-60
2022/03/28 09:01:02;;;;;;;42.27;19.33;;;10.60;48.80;;;;;;5082346;28;20228;-60
2022/03/28 09:03:39;;;;;;;46.67;17.30;;;10.80;48.60;;;;;;5083942;28;20462;-59
2022/03/28 09:06:40;;;;;;;41.93;17.23;;;11.00;48.30;;;;;;5088883;28;20439;-61
2022/03/28 09:09:27;;;;;;;40.53;15.73;;;11.30;47.90;;;;;;5086707;28;20448;-60
2022/03/28 09:11:55;;;;;;;42.63;18.53;;;11.60;47.40;;;;;;5071402;28;20437;-60
2022/03/28 09:14:32;;;;;;;39.73;18.43;;;11.90;47.20;;;;;;5074933;28;20421;-62
2022/03/28 09:17:05;;;;;;;49.93;19.30;;;12.20;47.20;;;;;;5075025;28;20432;-60
2022/03/28 09:19:46;;;;;;;35.83;17.87;;;12.40;45.70;;;;;;5076575;28;20439;-60
2022/03/28 09:22:17;;;;;;;37.33;17.83;;;12.70;44.70;;;;;;5085787;28;20419;-60
2022/03/28 09:24:45;;;;;;;33.53;17.10;;;13.00;43.80;;;;;;5088949;28;20411;-60
2022/03/28 09:27:13;;;;;;;34.00;17.07;;;13.30;43.40;;;;;;5089716;28;20464;-60
2022/03/28 09:30:08;;;;;;;33.13;17.20;;;13.60;42.80;;;;;;5089410;28;20412;-58
2022/03/28 09:32:36;;;;;;;29.90;16.53;;;13.80;41.70;;;;;;5089218;28;20420;-60
2022/03/28 09:35:24;;;;;;;35.67;17.50;;;14.10;40.90;;;;;;5081211;28;20460;-63
2022/03/28 09:37:56;;;;;;;30.73;16.50;;;14.30;40.40;;;;;;5084965;28;20462;-62
2022/03/28 09:40:40;;;;;;;37.13;17.10;;;14.50;40.40;;;;;;5097557;28;20440;-61
2022/03/28 09:43:43;;;;;;;41.40;16.97;;;14.70;39.80;;;;;;5082771;28;20436;-64
2022/03/28 09:46:08;;;;;;;35.70;16.57;;;14.90;40.10;;;;;;5006092;28;20431;-65
2022/03/28 09:48:45;;;;;;;30.23;16.17;;;15.10;40.40;;;;;;5068023;27;20486;-65
2022/03/28 09:51:11;;;;;;;29.70;15.63;;;15.30;39.80;;;;;;5085380;28;20591;-64
2022/03/28 09:53:38;;;;;;;32.73;16.60;;;15.50;39.70;;;;;;5082845;28;20435;-60
2022/03/28 09:56:11;;;;;;;33.67;16.37;;;15.70;39.00;;;;;;5083868;28;20541;-59
2022/03/28 09:58:58;;;;;;;33.70;16.80;;;15.90;36.70;;;;;;5082126;28;20448;-61
2022/03/28 10:01:24;;;;;;;30.63;16.33;;;16.00;35.40;;;;;;5086316;28;20453;-56
2022/03/28 10:03:52;;;;;;;30.70;17.13;;;16.10;35.00;;;;;;5083284;28;20448;-59
2022/03/28 10:06:19;;;;;;;38.30;15.93;;;16.20;35.70;;;;;;5085610;28;20558;-60
2022/03/28 10:08:47;;;;;;;30.53;15.40;;;16.30;35.40;;;;;;5084634;28;20474;-60
2022/03/28 10:11:13;;;;;;;26.30;15.60;;;16.40;32.80;;;;;;5087566;28;20427;-60
2022/03/28 10:13:39;;;;;;;31.30;16.00;;;16.50;33.10;;;;;;5084609;28;20772;-60
2022/03/28 10:16:08;;;;;;;33.70;15.00;;;16.60;34.30;;;;;;5083017;28;20473;-60
2022/03/28 10:18:36;;;;;;;32.40;15.47;;;16.70;32.20;;;;;;5083919;28;20516;-60
2022/03/28 10:21:08;;;;;;;23.70;14.00;;;16.80;31.90;;;;;;5078188;28;20991;-60
2022/03/28 10:24:11;;;;;;;23.27;13.97;;;17.00;31.10;;;;;;5087373;28;20435;-60
2022/03/28 10:26:39;;;;;;;29.03;14.80;;;17.10;29.90;;;;;;5086373;28;20496;-60
2022/03/28 10:29:19;;;;;;;21.60;12.10;;;17.30;29.50;;;;;;5080497;28;20504;-60
2022/03/28 10:32:06;;;;;;;23.07;13.47;;;17.40;28.40;;;;;;5082018;28;20428;-59
2022/03/28 10:34:53;;;;;;;22.57;12.87;;;17.50;27.40;;;;;;5085425;28;20438;-60
2022/03/28 10:37:40;;;;;;;24.30;13.07;;;17.60;27.90;;;;;;5084581;28;20452;-60
2022/03/28 10:40:17;;;;;;;26.00;13.97;;;17.60;27.20;;;;;;5083945;28;20484;-60
2022/03/28 10:42:49;;;;;;;22.67;11.70;;;17.80;27.90;;;;;;5080914;28;20729;-59
2022/03/28 10:45:19;;;;;;;25.30;11.80;;;17.90;27.80;;;;;;5079952;28;20904;-60
2022/03/28 10:47:59;;;;;;;17.67;9.47;;;17.90;25.80;;;;;;5080000;28;20554;-59
2022/03/28 10:50:35;;;;;;;17.67;9.43;;;18.00;24.50;;;;;;5078007;28;20801;-60
2022/03/28 10:53:08;;;;;;;19.70;11.77;;;17.90;23.00;;;;;;5079779;28;20428;-61
2022/03/28 10:55:51;;;;;;;18.57;11.07;;;17.90;22.80;;;;;;5078750;28;20469;-60
2022/03/28 10:58:25;;;;;;;21.20;11.77;;;18.00;24.60;;;;;;5080866;28;20447;-61
2022/03/28 11:01:06;;;;;;;21.27;10.80;;;18.20;26.00;;;;;;5084458;28;20439;-61
2022/03/28 11:03:46;;;;;;;26.57;12.60;;;18.30;26.90;;;;;;5085349;28;20462;-62
2022/03/28 11:06:17;;;;;;;27.30;12.70;;;18.40;26.30;;;;;;5082106;28;20428;-62
2022/03/28 11:08:47;;;;;;;25.60;14.97;;;18.50;27.40;;;;;;5078754;28;20464;-60
2022/03/28 11:11:24;;;;;;;22.87;14.53;;;18.70;27.70;;;;;;5083562;28;20419;-60
2022/03/28 11:14:08;;;;;;;25.93;13.40;;;18.70;27.00;;;;;;5085166;28;20431;-60
2022/03/28 11:16:42;;;;;;;25.27;13.80;;;18.80;27.80;;;;;;5081540;28;20419;-60
2022/03/28 11:19:29;;;;;;;21.60;12.57;;;18.90;27.20;;;;;;5084706;28;20455;-59
2022/03/28 11:22:08;;;;;;;24.67;13.47;;;18.90;27.10;;;;;;5082217;28;20435;-61
2022/03/28 11:24:54;;;;;;;24.80;13.20;;;18.90;26.70;;;;;;5080607;28;20950;-61
2022/03/28 11:27:22;;;;;;;23.87;12.87;;;18.90;27.20;;;;;;5085656;28;20463;-61
2022/03/28 11:29:49;;;;;;;25.30;13.90;;;19.00;28.50;;;;;;5080447;28;20423;-60
2022/03/28 11:32:19;;;;;;;24.40;13.17;;;19.20;28.10;;;;;;5083761;28;20843;-60
2022/03/28 11:34:53;;;;;;;22.63;13.10;;;19.50;27.90;;;;;;5080657;28;20428;-60
2022/03/28 11:37:22;;;;;;;23.87;13.97;;;19.70;27.00;;;;;;5081501;28;20458;-59
2022/03/28 11:40:00;;;;;;;23.20;13.90;;;19.90;27.00;;;;;;5078978;28;20989;-60
2022/03/28 11:42:28;;;;;;;27.60;13.33;;;19.90;26.30;;;;;;5085265;28;20439;-60
2022/03/28 11:44:55;;;;;;;31.40;13.33;;;19.90;26.40;;;;;;5074256;28;20454;-61
2022/03/28 11:47:21;;;;;;;24.53;13.80;;;20.00;26.30;;;;;;5075265;28;20466;-61
2022/03/28 11:49:52;;;;;;;20.93;12.83;;;20.00;26.50;;;;;;5078712;28;20435;-61
2022/03/28 11:52:19;;;;;;;23.40;13.00;;;20.10;26.10;;;;;;5076395;28;20518;-61
2022/03/28 11:54:45;;;;;;;24.83;13.13;;;20.10;25.80;;;;;;5096720;28;20932;-62
2022/03/28 12:00:21;;;;;;;19.70;11.83;;;20.20;27.00;;;;;;5081073;28;20196;-57
2022/03/28 12:02:57;;;;;;;21.73;12.80;;;20.50;26.90;;;;;;5075580;28;20427;-57
2022/03/28 12:05:28;;;;;;;21.93;12.47;;;20.60;25.50;;;;;;5074294;28;20477;-57
2022/03/28 12:07:55;;;;;;;19.83;12.47;;;20.70;25.40;;;;;;5083291;28;20471;-57
2022/03/28 12:10:29;;;;;;;26.67;13.40;;;20.80;25.70;;;;;;5079362;28;20446;-57
2022/03/28 12:13:00;;;;;;;24.97;14.70;;;20.90;25.70;;;;;;5078531;28;20898;-56
2022/03/28 12:15:31;;;;;;;22.63;12.67;;;20.90;25.10;;;;;;5079892;28;20462;-59
2022/03/28 12:18:01;;;;;;;21.33;13.00;;;21.00;25.90;;;;;;5083679;28;21121;-60
2022/03/28 12:20:30;;;;;;;34.63;14.30;;;21.20;26.20;;;;;;5083486;28;20439;-59
2022/03/28 12:22:58;;;;;;;24.80;13.00;;;21.30;25.50;;;;;;5081681;28;20459;-61
2022/03/28 12:25:39;;;;;;;23.83;13.17;;;21.40;25.60;;;;;;5082971;28;20497;-62
2022/03/28 12:28:29;;;;;;;24.33;13.70;;;21.50;25.90;;;;;;5078124;28;20559;-59
2022/03/28 12:30:57;;;;;;;23.40;13.60;;;21.60;25.30;;;;;;5071161;28;20492;-60
2022/03/28 12:33:29;;;;;;;27.07;14.80;;;21.70;25.30;;;;;;5082982;28;20974;-60
2022/03/28 12:36:12;;;;;;;24.60;14.17;;;21.70;25.10;;;;;;5076779;28;20432;-60
2022/03/28 12:38:40;;;;;;;27.40;13.07;;;21.80;25.30;;;;;;5082042;28;20431;-60
2022/03/28 12:41:14;;;;;;;30.83;14.70;;;21.90;25.40;;;;;;5074228;28;20523;-61
2022/03/28 12:43:47;;;;;;;27.70;14.37;;;21.90;25.80;;;;;;5069766;28;20531;-60
2022/03/28 12:46:16;;;;;;;24.20;13.80;;;22.10;26.00;;;;;;5071225;28;20472;-63